createdAt,value
2023-03-31T00:01:14.102Z,98382.47
2023-03-31T00:03:44.422Z,98398.91
2023-03-31T00:06:18.675Z,98385.69
2023-03-31T00:08:51.644Z,98380.38
2023-03-31T00:11:22.271Z,98370.91
2023-03-31T00:13:50.270Z,98373.13
2023-03-31T00:16:18.235Z,98355.13
2023-03-31T00:18:47.697Z,98357.84
2023-03-31T00:21:34.050Z,98355.75
2023-03-31T00:24:07.687Z,98357.03
2023-03-31T00:26:36.462Z,98353.16
2023-03-31T00:29:06.341Z,98342.38
2023-03-31T00:31:35.298Z,98335.28
2023-03-31T00:34:03.280Z,98342.84
2023-03-31T00:36:31.781Z,98337.88
2023-03-31T00:39:02.838Z,98334.63
2023-03-31T00:41:30.779Z,98340.59
2023-03-31T00:44:13.165Z,98337.72
2023-03-31T00:46:57.208Z,98332.25
2023-03-31T00:49:28.002Z,98324.19
2023-03-31T00:52:02.412Z,98320.00
2023-03-31T00:54:33.873Z,98312.09
2023-03-31T00:57:07.462Z,98322.53
2023-03-31T00:59:41.416Z,98309.19
2023-03-31T01:02:12.846Z,98307.31
2023-03-31T01:04:46.320Z,98291.06
2023-03-31T01:07:44.165Z,98288.69
2023-03-31T01:10:13.418Z,98288.38
2023-03-31T01:12:44.764Z,98279.72
2023-03-31T01:15:13.582Z,98265.88
2023-03-31T01:17:44.952Z,98271.63
2023-03-31T01:20:22.085Z,98259.94
2023-03-31T01:23:11.947Z,98253.19
2023-03-31T01:25:58.157Z,98244.03
2023-03-31T01:28:32.045Z,98242.09
2023-03-31T01:31:12.120Z,98235.81
2023-03-31T01:34:04.341Z,98240.81
2023-03-31T01:36:51.276Z,98232.63
2023-03-31T01:39:43.710Z,98229.41
2023-03-31T01:43:10.478Z,98224.75
2023-03-31T01:46:01.619Z,98225.00
2023-03-31T01:48:42.065Z,98224.13
2023-03-31T01:51:34.093Z,98208.66
2023-03-31T01:54:05.980Z,98214.81
2023-03-31T01:56:53.030Z,98209.00
2023-03-31T01:59:33.061Z,98202.72
2023-03-31T02:02:14.015Z,98211.09
2023-03-31T02:04:48.593Z,98197.59
2023-03-31T02:07:30.906Z,98193.56
2023-03-31T02:10:04.472Z,98194.16
2023-03-31T02:12:34.628Z,98190.97
2023-03-31T02:15:07.788Z,98189.97
2023-03-31T02:17:40.535Z,98193.25
2023-03-31T02:20:13.168Z,98176.59
2023-03-31T02:22:46.310Z,98183.47
2023-03-31T02:25:20.423Z,98169.06
2023-03-31T02:28:01.686Z,98160.22
2023-03-31T02:30:37.833Z,98165.84
2023-03-31T02:33:06.012Z,98163.25
2023-03-31T02:35:35.192Z,98159.25
2023-03-31T02:38:03.582Z,98154.94
2023-03-31T02:40:31.474Z,98156.69
2023-03-31T02:43:00.762Z,98154.09
2023-03-31T02:45:46.923Z,98139.69
2023-03-31T02:48:22.265Z,98139.00
2023-03-31T02:51:03.264Z,98134.53
2023-03-31T02:53:40.703Z,98129.31
2023-03-31T02:56:24.743Z,98119.81
2023-03-31T02:58:55.743Z,98111.78
2023-03-31T03:01:55.090Z,98118.72
2023-03-31T03:04:39.420Z,98123.72
2023-03-31T03:07:49.334Z,98118.38
2023-03-31T03:10:46.319Z,98118.88
2023-03-31T03:13:51.544Z,98121.72
2023-03-31T03:16:33.251Z,98123.81
2023-03-31T03:19:05.125Z,98113.66
2023-03-31T03:21:33.933Z,98110.66
2023-03-31T03:24:01.882Z,98098.25
2023-03-31T03:26:29.772Z,98100.66
2023-03-31T03:28:58.213Z,98087.91
2023-03-31T03:31:26.656Z,98100.31
2023-03-31T03:33:54.609Z,98092.72
2023-03-31T03:36:23.767Z,98092.00
2023-03-31T03:38:51.707Z,98082.31
2023-03-31T03:41:19.578Z,98081.25
2023-03-31T03:43:47.798Z,98074.84
2023-03-31T03:46:15.645Z,98071.03
2023-03-31T03:48:43.506Z,98072.28
2023-03-31T03:51:11.631Z,98072.88
2023-03-31T03:53:39.445Z,98069.16
2023-03-31T03:56:07.456Z,98061.63
2023-03-31T03:58:36.114Z,98052.25
2023-03-31T04:01:04.351Z,98056.97
2023-03-31T04:03:32.352Z,98056.63
2023-03-31T04:06:00.235Z,98053.44
2023-03-31T04:08:28.086Z,98048.03
2023-03-31T04:10:55.904Z,98042.88
2023-03-31T04:13:23.991Z,98042.09
2023-03-31T04:15:51.906Z,98051.13
2023-03-31T04:18:25.806Z,98060.50
2023-03-31T04:21:06.417Z,98051.94
2023-03-31T04:23:42.704Z,98059.88
2023-03-31T04:26:10.679Z,98063.41
2023-03-31T04:28:42.890Z,98048.13
2023-03-31T04:31:15.481Z,98046.19
2023-03-31T04:33:46.239Z,98039.97
2023-03-31T04:36:18.014Z,98045.25
2023-03-31T04:38:51.156Z,98036.91
2023-03-31T04:41:19.484Z,98041.91
2023-03-31T04:43:47.350Z,98034.19
2023-03-31T04:46:15.794Z,98034.06
2023-03-31T04:48:43.759Z,98018.06
2023-03-31T04:51:11.735Z,98016.03
2023-03-31T04:53:39.582Z,98019.13
2023-03-31T04:56:08.074Z,98013.59
2023-03-31T04:58:36.494Z,98003.81
2023-03-31T05:01:08.225Z,98010.50
2023-03-31T05:03:36.423Z,98015.25
2023-03-31T05:06:04.910Z,98002.38
2023-03-31T05:08:34.074Z,97998.94
2023-03-31T05:11:04.013Z,98002.59
2023-03-31T05:13:31.898Z,97997.94
2023-03-31T05:16:09.532Z,98007.41
2023-03-31T05:18:38.124Z,98001.00
2023-03-31T05:21:17.599Z,98004.84
2023-03-31T05:23:46.139Z,98004.34
2023-03-31T05:26:15.157Z,97992.00
2023-03-31T05:28:43.146Z,97982.00
2023-03-31T05:31:13.015Z,97980.72
2023-03-31T05:33:42.181Z,97987.69
2023-03-31T05:36:13.347Z,97981.22
2023-03-31T05:38:42.007Z,97983.56
2023-03-31T05:41:11.200Z,97983.81
2023-03-31T05:43:39.751Z,97975.53
2023-03-31T05:46:08.409Z,97966.59
2023-03-31T05:48:38.054Z,97958.69
2023-03-31T05:51:06.499Z,97962.03
2023-03-31T05:53:35.167Z,97960.34
2023-03-31T05:56:07.137Z,97959.34
2023-03-31T05:58:36.493Z,97938.78
2023-03-31T06:01:19.666Z,97959.66
2023-03-31T06:03:47.883Z,97952.56
2023-03-31T06:06:16.552Z,97937.06
2023-03-31T06:08:46.362Z,97956.94
2023-03-31T06:11:17.402Z,97951.00
2023-03-31T06:13:45.748Z,97952.47
2023-03-31T06:16:15.634Z,97938.50
2023-03-31T06:18:43.926Z,97934.53
2023-03-31T06:21:16.284Z,97931.09
2023-03-31T06:23:45.495Z,97922.66
2023-03-31T06:26:16.451Z,97917.34
2023-03-31T06:28:46.112Z,97916.31
2023-03-31T06:31:16.512Z,97902.25
2023-03-31T06:33:45.498Z,97905.47
2023-03-31T06:36:16.394Z,97894.00
2023-03-31T06:38:45.022Z,97885.72
2023-03-31T06:41:14.772Z,97875.34
2023-03-31T06:43:42.885Z,97880.47
2023-03-31T06:46:11.209Z,97876.50
2023-03-31T06:48:39.552Z,97878.31
2023-03-31T06:51:09.046Z,97873.16
2023-03-31T06:53:37.354Z,97871.47
2023-03-31T06:56:06.803Z,97868.59
2023-03-31T06:58:35.329Z,97870.31
2023-03-31T07:01:06.065Z,97872.47
2023-03-31T07:03:34.490Z,97865.53
2023-03-31T07:06:02.572Z,97847.75
2023-03-31T07:08:30.709Z,97844.63
2023-03-31T07:11:00.851Z,97827.50
2023-03-31T07:13:29.352Z,97844.88
2023-03-31T07:15:57.746Z,97845.09
2023-03-31T07:18:34.281Z,97844.31
2023-03-31T07:21:07.266Z,97844.41
2023-03-31T07:23:37.135Z,97825.56
2023-03-31T07:26:06.361Z,97820.75
2023-03-31T07:28:34.282Z,97822.59
2023-03-31T07:31:02.183Z,97815.78
2023-03-31T07:33:30.098Z,97802.97
2023-03-31T07:36:10.819Z,97799.56
2023-03-31T07:38:42.433Z,97780.47
2023-03-31T07:41:12.204Z,97779.22
2023-03-31T07:43:40.700Z,97776.25
2023-03-31T07:46:18.808Z,97764.59
2023-03-31T07:48:47.568Z,97780.31
2023-03-31T07:51:17.596Z,97765.13
2023-03-31T07:53:46.457Z,97774.50
2023-03-31T07:56:14.439Z,97788.00
2023-03-31T07:58:42.984Z,97776.91
2023-03-31T08:01:16.904Z,97774.25
2023-03-31T08:03:46.650Z,97748.09
2023-03-31T08:06:19.551Z,97738.75
2023-03-31T08:08:48.258Z,97730.00
2023-03-31T08:11:17.167Z,97727.22
2023-03-31T08:13:45.062Z,97729.78
2023-03-31T08:16:13.357Z,97737.03
2023-03-31T08:18:41.526Z,97729.72
2023-03-31T08:21:10.070Z,97735.28
2023-03-31T08:23:37.990Z,97730.44
2023-03-31T08:26:11.443Z,97707.94
2023-03-31T08:28:39.621Z,97698.41
2023-03-31T08:31:08.829Z,97692.13
2023-03-31T08:33:37.664Z,97695.47
2023-03-31T08:36:09.496Z,97694.94
2023-03-31T08:38:41.921Z,97695.00
2023-03-31T08:41:41.789Z,97681.56
2023-03-31T08:44:39.920Z,97678.91
2023-03-31T08:47:19.622Z,97691.81
2023-03-31T08:49:59.033Z,97694.34
2023-03-31T08:52:33.176Z,97687.41
2023-03-31T08:55:06.735Z,97678.56
2023-03-31T08:57:41.082Z,97687.59
2023-03-31T09:00:18.345Z,97677.69
2023-03-31T09:02:48.885Z,97668.84
2023-03-31T09:06:00.545Z,97682.66
2023-03-31T09:08:44.812Z,97689.09
2023-03-31T09:11:34.494Z,97694.84
2023-03-31T09:14:16.373Z,97698.38
2023-03-31T09:16:56.204Z,97721.22
2023-03-31T09:20:08.031Z,97739.91
2023-03-31T09:22:41.830Z,97733.25
2023-03-31T09:25:21.295Z,97760.56
2023-03-31T09:27:52.755Z,97753.47
2023-03-31T09:30:32.390Z,97770.03
2023-03-31T09:33:20.349Z,97793.66
2023-03-31T09:35:50.027Z,97801.63
2023-03-31T09:38:20.326Z,97783.81
2023-03-31T09:40:48.467Z,97782.94
2023-03-31T09:43:23.993Z,97761.78
2023-03-31T09:46:08.499Z,97733.25
2023-03-31T09:48:39.700Z,97707.72
2023-03-31T09:51:18.897Z,97686.78
2023-03-31T09:53:56.998Z,97653.66
2023-03-31T09:56:47.409Z,97633.22
2023-03-31T09:59:20.825Z,97618.16
2023-03-31T10:01:53.950Z,97620.78
2023-03-31T10:04:28.352Z,97597.00
2023-03-31T10:06:57.381Z,97591.00
2023-03-31T10:09:28.453Z,97578.47
2023-03-31T10:12:31.091Z,97580.69
2023-03-31T10:15:22.074Z,97585.16
2023-03-31T10:20:43.997Z,97567.13
2023-03-31T10:23:24.857Z,97579.69
2023-03-31T10:25:53.925Z,97588.50
2023-03-31T10:28:22.928Z,97570.56
2023-03-31T10:30:57.855Z,97570.03
2023-03-31T10:33:28.447Z,97560.25
2023-03-31T10:36:01.807Z,97563.03
2023-03-31T10:38:37.697Z,97559.03
2023-03-31T10:41:06.390Z,97538.91
2023-03-31T10:43:38.778Z,97555.28
2023-03-31T10:46:06.985Z,97571.59
2023-03-31T10:48:41.465Z,97572.78
2023-03-31T10:51:22.322Z,97587.66
2023-03-31T10:53:53.183Z,97598.34
2023-03-31T10:56:37.530Z,97625.47
2023-03-31T10:59:28.308Z,97615.03
2023-03-31T11:02:00.745Z,97594.41
2023-03-31T11:04:48.413Z,97579.75
2023-03-31T11:07:27.425Z,97570.31
2023-03-31T11:10:26.310Z,97546.91
2023-03-31T11:13:19.958Z,97533.13
2023-03-31T11:16:16.320Z,97519.25
2023-03-31T11:19:22.178Z,97517.94
2023-03-31T11:22:04.969Z,97514.44
2023-03-31T11:24:51.093Z,97499.78
2023-03-31T11:27:31.471Z,97500.31
2023-03-31T11:30:31.748Z,97483.97
2023-03-31T11:33:18.136Z,97488.94
2023-03-31T11:36:37.036Z,97482.22
2023-03-31T11:39:11.122Z,97477.66
2023-03-31T11:41:49.943Z,97465.13
2023-03-31T11:44:20.040Z,97462.78
2023-03-31T11:47:06.579Z,97453.34
2023-03-31T11:49:39.889Z,97443.09
2023-03-31T11:52:22.411Z,97446.94
2023-03-31T11:55:03.233Z,97440.34
2023-03-31T11:58:11.582Z,97410.41
2023-03-31T12:00:45.307Z,97408.81
2023-03-31T12:03:35.013Z,97414.31
2023-03-31T12:06:17.673Z,97418.31
2023-03-31T12:09:08.202Z,97411.19
2023-03-31T12:11:42.040Z,97384.31
2023-03-31T12:14:41.990Z,97383.06
2023-03-31T12:17:20.730Z,97379.84
2023-03-31T12:20:10.703Z,97384.56
2023-03-31T12:22:43.735Z,97376.72
2023-03-31T12:25:18.740Z,97371.56
2023-03-31T12:27:54.738Z,97368.03
2023-03-31T12:30:35.093Z,97372.75
2023-03-31T12:33:07.668Z,97386.97
2023-03-31T12:36:21.497Z,97389.34
2023-03-31T12:39:02.171Z,97386.19
2023-03-31T12:41:58.249Z,97378.31
2023-03-31T12:44:44.624Z,97381.03
2023-03-31T12:47:43.376Z,97368.34
2023-03-31T12:50:20.142Z,97350.63
2023-03-31T12:53:10.321Z,97377.84
2023-03-31T12:55:41.372Z,97360.09
2023-03-31T12:58:32.958Z,97367.94
2023-03-31T13:01:07.705Z,97330.09
2023-03-31T13:03:35.909Z,97317.41
2023-03-31T13:06:04.358Z,97313.91
2023-03-31T13:08:58.230Z,97329.69
2023-03-31T13:11:36.473Z,97328.88
2023-03-31T13:14:14.642Z,97331.66
2023-03-31T13:16:43.129Z,97338.72
2023-03-31T13:19:26.036Z,97348.16
2023-03-31T13:21:56.218Z,97345.44
2023-03-31T13:24:26.304Z,97337.53
2023-03-31T13:26:59.689Z,97356.06
2023-03-31T13:29:44.044Z,97358.78
2023-03-31T13:32:22.450Z,97360.75
2023-03-31T13:35:00.531Z,97388.59
2023-03-31T13:37:30.921Z,97495.72
2023-03-31T13:40:21.425Z,97526.09
2023-03-31T13:42:52.441Z,97546.13
2023-03-31T13:45:20.570Z,97465.81
2023-03-31T13:47:53.693Z,97379.53
2023-03-31T13:50:36.144Z,97358.91
2023-03-31T13:53:16.448Z,97366.59
2023-03-31T13:56:14.514Z,97379.00
2023-03-31T13:59:29.155Z,97373.16
2023-03-31T14:02:15.831Z,97376.41
2023-03-31T14:05:05.802Z,97375.28
2023-03-31T14:08:05.962Z,97368.72
2023-03-31T14:10:37.169Z,97375.47
2023-03-31T14:13:07.691Z,97371.13
2023-03-31T14:15:44.089Z,97355.81
2023-03-31T14:18:17.256Z,97365.22
2023-03-31T14:21:22.603Z,97357.41
2023-03-31T14:24:19.802Z,97349.91
2023-03-31T14:26:58.292Z,97335.53
2023-03-31T14:29:36.433Z,97321.34
2023-03-31T14:32:07.199Z,97317.94
2023-03-31T14:34:46.009Z,97316.16
2023-03-31T14:37:17.944Z,97318.75
2023-03-31T14:39:54.081Z,97323.84
2023-03-31T14:42:42.476Z,97337.25
2023-03-31T14:45:20.774Z,97319.91
2023-03-31T14:48:13.620Z,97305.03
2023-03-31T14:50:46.572Z,97303.81
2023-03-31T14:53:16.682Z,97282.56
2023-03-31T14:55:58.047Z,97279.91
2023-03-31T14:58:32.157Z,97278.72
2023-03-31T15:01:06.958Z,97287.81
2023-03-31T15:03:41.664Z,97269.75
2023-03-31T15:06:12.074Z,97280.63
2023-03-31T15:08:40.700Z,97273.66
2023-03-31T15:11:16.543Z,97277.25
2023-03-31T15:14:01.086Z,97287.38
2023-03-31T15:16:50.356Z,97283.09
2023-03-31T15:19:24.919Z,97283.38
2023-03-31T15:22:21.399Z,97270.84
2023-03-31T15:24:49.470Z,97277.94
2023-03-31T15:30:24.260Z,97275.19
2023-03-31T15:32:56.902Z,97276.78
2023-03-31T15:35:35.092Z,97277.34
2023-03-31T15:38:05.877Z,97274.41
2023-03-31T15:40:40.365Z,97283.06
2023-03-31T15:45:53.597Z,97278.69
2023-03-31T15:48:22.846Z,97283.00
2023-03-31T15:50:51.854Z,97283.88
2023-03-31T15:53:28.534Z,97297.91
2023-03-31T15:56:00.086Z,97309.25
2023-03-31T15:58:48.454Z,97292.44
2023-03-31T16:01:17.663Z,97304.91
2023-03-31T16:03:45.809Z,97308.88
2023-03-31T16:06:22.098Z,97305.75
2023-03-31T16:08:59.213Z,97316.81
2023-03-31T16:11:40.295Z,97347.94
2023-03-31T16:14:18.336Z,97306.53
2023-03-31T16:16:50.859Z,97313.56
2023-03-31T16:19:22.384Z,97323.03
2023-03-31T16:21:55.041Z,97309.50
2023-03-31T16:24:30.550Z,97312.44
2023-03-31T16:27:06.841Z,97311.69
2023-03-31T16:29:37.223Z,97314.50
2023-03-31T16:32:19.510Z,97316.00
2023-03-31T16:34:53.551Z,97327.72
2023-03-31T16:37:22.062Z,97326.59
2023-03-31T16:39:49.935Z,97322.63
2023-03-31T16:42:19.283Z,97337.19
2023-03-31T16:44:52.912Z,97341.13
2023-03-31T16:47:35.225Z,97337.72
2023-03-31T16:50:07.348Z,97348.44
2023-03-31T16:52:36.936Z,97347.63
2023-03-31T16:55:05.481Z,97344.63
2023-03-31T16:57:33.575Z,97348.97
2023-03-31T17:00:01.839Z,97338.25
2023-03-31T17:02:29.905Z,97328.53
2023-03-31T17:05:06.256Z,97331.97
2023-03-31T17:07:40.848Z,97341.47
2023-03-31T17:10:09.342Z,97323.75
2023-03-31T17:12:37.210Z,97336.19
2023-03-31T17:15:05.614Z,97326.66
2023-03-31T17:17:33.759Z,97318.00
2023-03-31T17:20:01.667Z,97329.81
2023-03-31T17:22:29.593Z,97325.13
2023-03-31T17:24:58.485Z,97321.41
2023-03-31T17:27:28.248Z,97328.13
2023-03-31T17:29:56.618Z,97326.88
2023-03-31T17:32:24.907Z,97334.00
2023-03-31T17:34:53.390Z,97337.69
2023-03-31T17:37:21.479Z,97350.38
2023-03-31T17:39:51.164Z,97354.16
2023-03-31T17:42:20.353Z,97356.00
2023-03-31T17:44:50.220Z,97358.47
2023-03-31T17:47:19.099Z,97374.28
2023-03-31T17:49:47.444Z,97391.69
2023-03-31T17:52:15.325Z,97386.06
2023-03-31T17:54:43.554Z,97353.66
2023-03-31T17:57:11.473Z,97381.75
2023-03-31T17:59:39.373Z,97389.19
2023-03-31T18:02:07.305Z,97404.34
2023-03-31T18:04:36.451Z,97395.41
2023-03-31T18:07:04.347Z,97396.25
2023-03-31T18:09:32.422Z,97397.63
2023-03-31T18:12:00.612Z,97400.72
2023-03-31T18:14:28.596Z,97396.03
2023-03-31T18:16:57.835Z,97392.94
2023-03-31T18:19:25.697Z,97383.84
2023-03-31T18:21:53.539Z,97379.47
2023-03-31T18:24:22.646Z,97377.59
2023-03-31T18:26:50.513Z,97374.28
2023-03-31T18:29:18.416Z,97369.47
2023-03-31T18:31:46.483Z,97372.47
2023-03-31T18:34:16.302Z,97373.09
2023-03-31T18:36:46.215Z,97372.44
2023-03-31T18:39:14.356Z,97374.97
2023-03-31T18:41:46.304Z,97381.53
2023-03-31T18:44:16.762Z,97378.31
2023-03-31T18:46:45.799Z,97371.00
2023-03-31T18:49:14.554Z,97388.16
2023-03-31T18:51:42.642Z,97395.81
2023-03-31T18:54:10.557Z,97395.25
2023-03-31T18:56:38.427Z,97388.22
2023-03-31T18:59:06.385Z,97398.84
2023-03-31T19:01:37.329Z,97406.00
2023-03-31T19:04:05.389Z,97405.41
2023-03-31T19:06:33.691Z,97433.25
2023-03-31T19:09:01.567Z,97428.41
2023-03-31T19:11:29.449Z,97422.66
2023-03-31T19:13:57.532Z,97428.56
2023-03-31T19:16:27.195Z,97421.00
2023-03-31T19:18:56.470Z,97439.31
2023-03-31T19:21:25.676Z,97428.78
2023-03-31T19:23:53.492Z,97438.09
2023-03-31T19:26:22.759Z,97420.41
2023-03-31T19:28:50.716Z,97424.53
2023-03-31T19:31:18.680Z,97416.16
2023-03-31T19:33:46.594Z,97421.22
2023-03-31T19:36:15.463Z,97419.25
2023-03-31T19:38:44.183Z,97413.94
2023-03-31T19:41:13.244Z,97431.16
2023-03-31T19:43:41.525Z,97427.97
2023-03-31T19:46:09.691Z,97439.91
2023-03-31T19:48:37.644Z,97430.22
2023-03-31T19:51:06.304Z,97447.75
2023-03-31T19:53:36.812Z,97418.81
2023-03-31T19:56:10.489Z,97416.31
2023-03-31T19:58:39.103Z,97428.06
2023-03-31T20:01:19.793Z,97409.59
2023-03-31T20:03:52.906Z,97421.13
2023-03-31T20:06:23.878Z,97432.81
2023-03-31T20:08:54.207Z,97422.88
2023-03-31T20:11:22.676Z,97420.94
2023-03-31T20:13:50.547Z,97416.31
2023-03-31T20:16:20.884Z,97414.69
2023-03-31T20:18:56.739Z,97402.22
2023-03-31T20:21:27.244Z,97400.50
2023-03-31T20:23:55.563Z,97401.00
2023-03-31T20:26:32.497Z,97405.63
2023-03-31T20:29:02.707Z,97404.75
2023-03-31T20:31:34.116Z,97407.34
2023-03-31T20:34:02.198Z,97403.81
2023-03-31T20:36:31.661Z,97405.63
2023-03-31T20:39:03.005Z,97416.66
2023-03-31T20:41:31.791Z,97413.75
2023-03-31T20:44:00.764Z,97413.25
2023-03-31T20:46:29.482Z,97423.19
2023-03-31T20:48:58.231Z,97410.19
2023-03-31T20:51:29.251Z,97418.59
2023-03-31T20:53:58.570Z,97406.69
2023-03-31T20:56:29.344Z,97409.75
2023-03-31T20:58:59.087Z,97408.31
2023-03-31T21:01:30.945Z,97417.16
2023-03-31T21:04:01.240Z,97427.47
2023-03-31T21:06:36.429Z,97421.06
2023-03-31T21:09:04.711Z,97416.16
2023-03-31T21:11:33.126Z,97415.88
2023-03-31T21:14:01.396Z,97407.47
2023-03-31T21:16:29.269Z,97401.94
2023-03-31T21:18:59.844Z,97407.00
2023-03-31T21:21:29.019Z,97400.50
2023-03-31T21:23:57.065Z,97398.84
2023-03-31T21:26:25.655Z,97396.31
2023-03-31T21:28:54.469Z,97393.91
2023-03-31T21:31:24.656Z,97389.03
2023-03-31T21:33:57.803Z,97397.47
2023-03-31T21:36:26.800Z,97390.06
2023-03-31T21:38:57.404Z,97391.75
2023-03-31T21:41:28.800Z,97400.63
2023-03-31T21:44:00.488Z,97399.75
2023-03-31T21:46:33.072Z,97391.38
2023-03-31T21:49:01.335Z,97396.03
2023-03-31T21:51:29.299Z,97405.06
2023-03-31T21:53:57.892Z,97399.41
2023-03-31T21:56:28.183Z,97403.75
2023-03-31T21:58:57.038Z,97404.78
2023-03-31T22:01:25.229Z,97384.91
2023-03-31T22:03:53.335Z,97399.16
2023-03-31T22:06:22.430Z,97395.03
2023-03-31T22:08:50.892Z,97401.78
2023-03-31T22:11:19.455Z,97398.16
2023-03-31T22:13:47.953Z,97391.97
2023-03-31T22:16:21.135Z,97391.75
2023-03-31T22:18:50.670Z,97396.59
2023-03-31T22:21:24.145Z,97401.72
2023-03-31T22:23:53.793Z,97391.41
2023-03-31T22:26:23.041Z,97380.88
2023-03-31T22:28:51.059Z,97390.63
2023-03-31T22:31:19.991Z,97395.25
2023-03-31T22:33:48.081Z,97392.63
2023-03-31T22:36:16.159Z,97399.28
2023-03-31T22:38:44.059Z,97401.88
2023-03-31T22:41:11.932Z,97391.59
2023-03-31T22:43:40.071Z,97400.19
2023-03-31T22:46:08.510Z,97391.97
2023-03-31T22:48:36.313Z,97388.09
2023-03-31T22:51:08.871Z,97380.59
2023-03-31T22:53:36.900Z,97381.81
2023-03-31T22:56:08.482Z,97380.66
2023-03-31T22:58:36.378Z,97378.63
2023-03-31T23:01:06.808Z,97381.00
2023-03-31T23:03:34.984Z,97380.72
2023-03-31T23:06:06.698Z,97370.63
2023-03-31T23:08:36.989Z,97365.50
2023-03-31T23:11:07.613Z,97363.63
2023-03-31T23:13:36.034Z,97360.50
2023-03-31T23:16:17.098Z,97364.50
2023-03-31T23:18:46.981Z,97349.13
2023-03-31T23:21:19.384Z,97350.28
2023-03-31T23:23:47.452Z,97358.72
2023-03-31T23:26:15.905Z,97352.16
2023-03-31T23:28:45.458Z,97357.50
2023-03-31T23:31:13.416Z,97358.72
2023-03-31T23:33:41.544Z,97366.88
2023-03-31T23:36:09.645Z,97366.06
2023-03-31T23:38:37.542Z,97354.38
2023-03-31T23:41:05.386Z,97358.50
2023-03-31T23:43:33.228Z,97363.69
2023-03-31T23:46:02.925Z,97358.13
2023-03-31T23:48:31.205Z,97359.44
2023-03-31T23:50:59.096Z,97364.84
2023-03-31T23:53:27.332Z,97364.41
2023-03-31T23:56:00.106Z,97373.50
2023-03-31T23:58:27.982Z,97367.16
